หน้าหลัก
METAR-TAF:

METAR-TAF

ท่าอากาศยาน :

Fairbanks, อะแลสกา, สหรัฐอเมริกา

ละติจูด: 64-48-14N, ลองจิจูด: 147-52-34W, ความสูง: 132 ม.

การสังเกตสภาพอากาศปัจจุบัน

รายงานได้ทำขึ้นเมื่อ 32 นาทีที่แล้ว ณ เวลา 17:53 UTC
ลมสงบ
อุณหภูมิ -3°C
ความชื้น 63%
ความกดอากาศ 1027 hPa
ทัศนวิสัย: 16.1 กม.
มีเมฆน้อยที่ความสูง 4000 ฟุต

METAR: PAFA 151753Z 00000KT 10SM FEW040 M03/M09 A3034 RMK AO2 SLP283 T10281094 11028 21056 58005

เวลา: 10:25 (18:25 UTC)

การพยากรณ์

รายงานได้ทำขึ้นเมื่อ 56 นาทีที่แล้ว ณ เวลา 17:29 UTC
การพยากรณ์มีผลตั้งแต่วันที่ 15 ณ เวลา 18 UTC จนถึงวันที่ 16 ณ เวลา 24 UTC
ลม 4 นอตจากทิศทางซึ่งแปรผันได้
ทัศนวิสัย: 10 กม.
มีเมฆเป็นส่วนมากเว้นเป็นระยะที่ความสูง 4000 ฟุต

TAF: PAFA 151729Z 1518/1624 VRB04KT P6SM BKN040

สังเกตการณ์สภาพอากาศและพยากรณ์อากาศของสนามบินมากกว่า 4000 แห่ง (รายงาน METAR และ TAF).

สถานีที่ดูได้จะแสดงไว้ด้วยจุดสีเหลืองและสีแดงบนแผนที่.

เลื่อนเมาส์ไปเหนือจุดเพื่อดูชื่อสถานี.

แล้วคลิกเพื่อดูสังเกตการณ์และการพยากรณ์สภาพอากาศ.

ในการเปลี่ยนแผนที่: คลิกที่ปุ่มสีเขียวที่มีกากบาทสีดำเพื่อซูมเข้า; ที่ปุ่มสีเขียวที่มีขีดเพื่อซูมออก; หรือที่ลูกศรสีเขียวเพื่อไปยังแผนที่ที่อยู่ติดกัน.


METAR-TAF: